x

9439040 - Astoria, Or (asto3) Weather Station

10:54 - Mon 30th May 2016 All times are PDT. -7 hours from GMT.

  • Wind
    3mph
  • Sea Temp 60°f
  • Luft Temp 56°f
  • Sea Pressure 1024.7mb
  • 9439040 - Astoria, Or
  • 9439040 - Astoria, Or

More Historic Weather Station data

Upgrade to MSW Pro to gain access to the past 30 days of data for over 8000 Wavebouys and Weather Stations around the globe.

Join Pro

Comparision Forecast

View Surf forecast
   
Mo 05/30 10:54 3
mph
1024.7mb 60f 56f
10:48 3 5 mph 1024.7mb 60f 55f
10:42 3 5 mph 1024.8mb 60f 55f
10:36 3 5 mph 1024.8mb 60f 55f
10:30 5 6 mph 1024.8mb 60f 55f
10:24 5
mph
1024.8mb 60f 54f
10:18 5 6 mph 1024.9mb 60f 54f
10:12 5 6 mph 1024.9mb 60f 54f
10:06 3 5 mph 1025mb 60f 54f
10:00 3 6 mph 1025mb 60f 54f
9:54 3 6 mph 1025mb 60f 54f
9:48 5 6 mph 1025.1mb 60f 53f
9:42 5 6 mph 1025.1mb 60f 53f
9:36 6
mph
1025.1mb 60f 53f
9:30 3 6 mph 1025mb 60f 53f
9:24 5 7 mph 1025mb 60f 53f
9:18 6 7 mph 1025mb 60f 53f
9:12 5 6 mph 1025mb 60f 52f
9:06 3 7 mph 1025mb 60f 53f
9:00 6 7 mph 1025mb 60f 52f
8:54 3 7 mph 1024.9mb 60f 52f
8:48 3 8 mph 1025mb 60f 53f
8:42 5 8 mph 1025mb 60f 52f
8:36 6 8 mph 1025mb 60f 52f
8:30 5 6 mph 1025mb 60f 52f
8:24 3 6 mph 1025mb 60f 52f
8:18 6 8 mph 1025.1mb 60f 52f
8:12 7 9 mph 1025.1mb 60f 52f
8:06 7 9 mph 1025.1mb 60f 52f
8:00 6 8 mph 1025mb 60f 52f
7:54 6 7 mph 1025.1mb 60f 52f
7:48 5 8 mph 1025.1mb 60f 52f
7:42 5 7 mph 1025.3mb 60f 51f
7:36 6 7 mph 1025.4mb 60f 51f
7:30 5 7 mph 1025.3mb 60f 51f
7:24 5 7 mph 1025.3mb 60f 51f
7:18 5 7 mph 1025.1mb 60f 51f
7:12 6 7 mph 1025.1mb 60f 51f
7:06 6 8 mph 1025.1mb 60f 51f
7:00 7 10 mph 1025.1mb 60f 51f
6:54 6 9 mph 1025.1mb 60f 51f
6:48 5 9 mph 1025.2mb 60f 52f
6:42 6 10 mph 1025.2mb 60f 52f
6:36 5 10 mph 1025.2mb 60f 52f
6:30 6 8 mph 1025.2mb 60f 52f
6:24 1 5 mph 1025.2mb 60f 51f
6:18  -  2 mph 1025.1mb 60f 51f
6:12 1 5 mph 1025mb 60f 50f
6:06 3 6 mph 1025mb 60f 50f
6:00 2 6 mph 1024.9mb 60f 50f
5:54 3 5 mph 1024.9mb 60f 50f
5:48 3 5 mph 1024.9mb 60f 50f
5:42 3 6 mph 1024.9mb 60f 50f
5:36 2 6 mph 1024.9mb 60f 50f
5:30 5 6 mph 1024.9mb 60f 50f
5:24 5 6 mph 1024.9mb 60f 50f
5:18 5 6 mph 1024.9mb 60f 51f
5:12 3 5 mph 1024.8mb 60f 51f
5:06 3 5 mph 1024.8mb 60f 51f
5:00 2 3 mph 1024.9mb 60f 51f
4:54 3 6 mph 1024.9mb 60f 51f
4:48 2 3 mph 1024.9mb 60f 51f
4:42 3 7 mph 1025mb 60f 52f
4:36 1 5 mph 1025mb 60f 52f
4:30 5 7 mph 1025mb 60f 52f
4:24 5 7 mph 1024.9mb 60f 52f
4:12 3 9 mph 1025mb 60f 52f
4:06 7 9 mph 1025mb 60f 53f
4:00 6 10 mph 1025.1mb 60f 53f
3:54 7 10 mph 1025mb 60f 53f
3:48 10 15 mph 1024.9mb 60f 54f
3:42 8 10 mph 1025mb 60f 54f
3:36 6 11 mph 1025mb 60f 54f
3:30 9 13 mph 1025mb 60f 54f
3:24 6 7 mph 1024.9mb 60f 53f
3:18 6 7 mph 1024.9mb 60f 53f
3:12 5 7 mph 1024.9mb 60f 53f
3:06 3 6 mph 1024.9mb 60f 52f
3:00 2 3 mph 1024.9mb 60f 52f
2:54 3 6 mph 1024.9mb 60f 53f
2:48 5 7 mph 1024.9mb 60f 52f
2:42 3 6 mph 1024.9mb 60f 53f
2:36  -  6 mph 1024.9mb 60f 52f
2:30 2 5 mph 1024.9mb 60f 53f
2:24 3 7 mph 1024.9mb 60f 53f
2:18 6 7 mph 1024.9mb 60f 53f
2:12 2 6 mph 1024.9mb 60f 53f
2:06  -  3 mph 1024.8mb 60f 53f
2:00 3 5 mph 1024.9mb 60f 53f
1:54 5 6 mph 1024.8mb 60f 53f
1:48 6 7 mph 1024.8mb 60f 53f
1:42 3 6 mph 1024.8mb 60f 54f
1:36 5 7 mph 1024.8mb 60f 54f
1:30 6 7 mph 1024.8mb 60f 54f
1:24 5 7 mph 1024.8mb 60f 54f
1:18 6 8 mph 1024.8mb 60f 54f
1:12 6 8 mph 1024.7mb 60f 54f
1:06 6 7 mph 1024.7mb 60f 54f
1:00 7 9 mph 1024.7mb 60f 54f
12:54 8 9 mph 1024.7mb 60f 54f
12:42 7 9 mph 1024.8mb 60f 54f
12:36 6 7 mph 1024.8mb 60f 54f
12:30 7 9 mph 1024.8mb 60f 54f
12:24 7 9 mph 1024.9mb 60f 54f
12:18 7 8 mph 1024.8mb 60f 54f
12:12 5 7 mph 1024.8mb 60f 55f
12:00 6 7 mph 1024.8mb 60f 54f
So 05/29 11:54 5 6 mph 1024.8mb 60f 55f
11:48 3 6 mph 1024.8mb 60f 55f
11:42 3 6 mph 1024.8mb 60f 54f
11:36 5 6 mph 1024.9mb 60f 55f
11:30 3 6 mph 1024.9mb 60f 55f
11:24 6 7 mph 1024.8mb 60f 55f
11:18 5 7 mph 1024.8mb 60f 55f
11:12 5 7 mph 1024.8mb 60f 55f
11:06 5 6 mph 1024.8mb 60f 55f
11:00 6 7 mph 1024.8mb 60f 55f
10:54 5 7 mph 1024.8mb 60f 55f
10:48  -  mph 1024.7mb 60f 55f
10:42  -  mph 1024.7mb 59f 55f
10:36  -  mph 1024.7mb 60f 55f
10:30 8 11 mph 1024.7mb 60f 55f
10:24 7 9 mph 1024.7mb 61f 55f
10:18 8 10 mph 1024.7mb 61f 55f
10:12 7 11 mph 1024.7mb 61f 55f
10:06 8 10 mph 1024.6mb 61f 55f
10:00 6 9 mph 1024.5mb 60f 55f
9:54 6 9 mph 1024.5mb 60f 55f
9:48 7 8 mph 1024.5mb 60f 55f
9:42 8 10 mph 1024.5mb 60f 56f
9:36 7 9 mph 1024.4mb 60f 55f
9:30 8 9 mph 1024.4mb 60f 56f
9:24 7 10 mph 1024.2mb 60f 56f
9:18 8 13 mph 1024.1mb 60f 56f
9:12 8 14 mph 1024.1mb 60f 56f
9:06 8 13 mph 1024.1mb 60f 56f
9:00 9 13 mph 1024mb 60f 56f
8:54 11 14 mph 1024mb 60f 56f
8:48  -  mph 1024mb 60f 56f
8:42  -  mph 1024mb 60f 56f
8:36  -  mph 1024mb 61f 56f
8:30 13 15 mph 1023.9mb 61f 56f
8:24 10 13 mph 1023.9mb 61f 57f
8:18  -  mph 1023.9mb 61f 57f
8:12  -  mph 1023.9mb 61f 57f
8:06  -  mph 1023.9mb 61f 57f
8:00  -  mph - 61f 57f
7:54  -  mph - 61f 58f
7:48 11 16 mph 1023.7mb 61f -
7:42 11 16 mph 1023.7mb 61f -
7:36 13 16 mph 1023.7mb 61f -
7:30  -  mph 1023.6mb - -
7:24  -  mph 1023.6mb - -
7:18  -  mph - 61f -
7:12  -  mph - 61f -
7:06  -  mph - 61f -
7:00  -  mph - 61f 58f
6:54  -  mph - 61f 58f
6:48 14 16 mph 1023.3mb 61f 58f
6:42 9 14 mph 1023.2mb 61f 59f
6:36 13 16 mph 1023.2mb 61f 58f
6:30  -  mph 1023.2mb - -
6:24  -  mph 1023.2mb - -
6:18  -  mph - 61f 59f
6:12  -  mph - 61f 59f
6:06  -  mph - 61f 59f
6:00  -  mph 1023.2mb 61f -
5:54  -  mph 1023.3mb 61f -
5:48  -  mph 1023.3mb 61f -
5:42  -  mph 1023.3mb 61f -
5:36  -  mph 1023.2mb 61f -
5:30  -  mph 1023.2mb - -
5:24  -  mph 1023.2mb - -
5:18  -  mph - 61f 59f
5:12  -  mph - 61f 59f
5:06  -  mph - 61f 59f
5:00  -  mph 1023mb 61f 60f
4:54  -  mph 1023mb 61f 60f
4:48  -  mph 1023mb 61f -
4:42  -  mph 1023mb 61f -
4:36  -  mph 1023mb 61f -
4:30 5 10 mph - - -
4:24 2 5 mph - - -
4:18  -  mph - 61f 61f
4:12  -  mph - 61f 60f
4:06  -  mph - 61f 61f
4:00  -  mph 1023mb 61f -
3:54  -  mph 1023mb 62f -
3:48  -  mph - 62f -
3:42  -  mph - 62f -
3:36  -  mph - 62f -
3:30 2 6 mph 1023mb - -
3:24 1 9 mph 1022.9mb - -
3:18 1 7 mph 1022.9mb 62f 61f
3:12  -  7 mph 1022.9mb 62f 61f
3:06 2 5 mph 1022.9mb 62f 61f
3:00  -  mph - 62f -
2:54  -  mph - 62f -
2:48  -  mph - 62f -
2:42  -  mph - 61f -
2:36  -  mph - 61f -
2:30 2 8 mph 1022.8mb 61f 60f
2:24 2 9 mph 1022.8mb 61f 60f
2:18 2 7 mph 1022.7mb 61f 60f
2:12 2 6 mph 1022.7mb 61f 60f
2:06 2 8 mph 1022.7mb 61f 60f
2:00 2 6 mph 1022.7mb 61f 60f
1:54 1 9 mph 1022.6mb 61f 60f
1:48 2 6 mph 1022.5mb 61f 60f
1:42 2 6 mph 1022.5mb 60f 60f
1:36  -  7 mph 1022.5mb 60f 60f
1:30 2 6 mph 1022.4mb 60f 60f
1:24 1 3 mph 1022.4mb 60f 61f
1:18 1 6 mph 1022.4mb 60f 61f
1:12 2 6 mph 1022.4mb 60f 60f
1:06  -  5 mph 1022.3mb 60f 60f
1:00 2 6 mph 1022.3mb 60f 60f
12:54 2 6 mph 1022.2mb 60f 60f
12:48 2 6 mph 1022.1mb 60f 60f
12:42 1 3 mph 1022.1mb 60f 61f
12:36 1 6 mph 1022.1mb 60f 60f
12:30  -  5 mph 1022mb 60f 60f
12:24 2 5 mph 1021.9mb 60f 59f
12:18 1 6 mph 1021.9mb 60f 59f
12:12 1 3 mph 1021.9mb 60f 59f
12:06 1 3 mph 1021.8mb 60f 59f
12:00  -  1 mph 1021.7mb 60f 59f
11:54 1 2 mph 1021.7mb 60f 58f
11:48 1 2 mph 1021.6mb 60f 57f
11:42 2 3 mph 1021.5mb 60f 57f
11:36 2 3 mph 1021.5mb 60f 57f
11:24 3 5 mph 1021.5mb 60f 57f
11:18 2 3 mph 1021.4mb 60f 58f
11:12 2 3 mph 1021.4mb 60f 58f
11:06  -  3 mph 1021.3mb 60f 58f
11:00 1 2 mph 1021.3mb 60f 58f
10:54 1 2 mph 1021.2mb 60f 58f
10:48 1 2 mph 1021.1mb 60f 57f
10:42 1 2 mph 1021.1mb 60f 56f
10:36 1 2 mph 1021.1mb 60f 56f
10:30 1 3 mph 1021.1mb 60f 56f
10:24 2 6 mph 1021.1mb 60f 56f
10:18 3 5 mph 1021.1mb 60f 55f
10:12 3 5 mph 1021.1mb 59f 55f
10:06 3 6 mph 1021.1mb 59f 55f
10:00 5 8 mph 1021mb 59f 55f
9:54 5 6 mph 1021mb 59f 55f
9:48 6
mph
1021mb 59f 54f
9:42 3 6 mph 1020.9mb 59f 54f
9:36 2 5 mph 1020.8mb 59f 53f
9:30 3 7 mph 1020.8mb 60f 53f
9:24 7 9 mph 1020.8mb 60f 52f
9:18 8 13 mph 1020.8mb 60f 52f
9:12 10 11 mph 1020.7mb 60f 52f
9:06 2 8 mph 1020.6mb 60f 54f
9:00 6 8 mph 1020.5mb 60f 54f
8:54 5 8 mph 1020.4mb 60f 54f
8:48 7 10 mph 1020.3mb 60f 54f
8:42 3 9 mph 1020.3mb 60f 54f
8:36 5 8 mph 1020.3mb 60f 53f
8:30 3 6 mph 1020.1mb 60f 53f
8:24 6 7 mph 1020mb 60f 53f
8:18 3 7 mph 1020mb 60f 53f
8:12 5 7 mph 1020mb 60f 52f
8:06 6 8 mph 1020mb 60f 52f
8:00 6 9 mph 1020mb 60f 52f
7:54 8 11 mph 1020mb 60f 52f
7:48 8 10 mph 1019.9mb 60f 53f
7:42 7 11 mph 1019.9mb 60f 53f
7:36 6 11 mph 1019.9mb 60f 54f
7:30 6 11 mph 1019.8mb 60f 55f
7:24 6 8 mph 1019.7mb 60f 55f
7:18 7 9 mph 1019.6mb 60f 54f
7:12 7 8 mph 1019.5mb 60f 55f
7:06 6 8 mph 1019.4mb 60f 55f
7:00 5 7 mph 1019.3mb 60f 54f
6:54 6 9 mph 1019.3mb 60f 54f
6:48 6 8 mph 1019.3mb 60f 54f
6:42 6 8 mph 1019.2mb 60f 55f
6:36 7 9 mph 1019.2mb 59f 55f
6:30 6 8 mph 1019.1mb 59f 55f
6:24 5 6 mph 1019.1mb 60f 55f
6:18 5 7 mph 1019.1mb 60f 55f
6:12 6 8 mph 1019mb 60f 55f
6:06 5 8 mph 1019mb 60f 55f
6:00 5 8 mph 1018.9mb 59f 55f
5:54 6 7 mph 1018.9mb 59f 55f
5:36 6 7 mph 1018.7mb 59f 55f
5:30 5 6 mph 1018.7mb 59f 54f
5:24 6
mph
1018.6mb 59f 54f
5:18 5 6 mph 1018.6mb 59f 55f
5:12 5 6 mph 1018.6mb 59f 55f
5:06 6 8 mph 1018.6mb 59f 54f
5:00 7
mph
1018.6mb 59f 54f
4:54 6 7 mph 1018.5mb 59f 54f
4:48 6 8 mph 1018.5mb 59f 55f
4:42 6 7 mph 1018.5mb 59f 55f
4:36 6 8 mph 1018.5mb 59f 54f
4:30 6 8 mph 1018.4mb 59f 54f
4:24 6 8 mph 1018.4mb 59f 54f
4:18 7 8 mph 1018.3mb 59f 55f
4:12 7 9 mph 1018.3mb 59f 54f
4:06 7 9 mph 1018.3mb 59f 54f
4:00 7 10 mph 1018.3mb 59f 54f
3:54 7 10 mph 1018.3mb 59f 55f
3:48 6 8 mph 1018.3mb 59f 54f
3:42 7 8 mph 1018.3mb 59f 54f
3:36 6 8 mph 1018.2mb 59f 54f
3:30 3 7 mph 1018.2mb 59f 54f
3:24 6 8 mph 1018.2mb 59f 54f
3:18 6 8 mph 1018.2mb 59f 54f
3:12 6
mph
1018.1mb 59f 54f
3:06 6 7 mph 1018.1mb 59f 54f
3:00 6 8 mph 1018.1mb 59f 55f
2:54 5 6 mph 1018.1mb 59f 55f
2:48 5 6 mph 1018.1mb 59f 54f
2:42 5 6 mph 1018.2mb 59f 55f
2:36 5 7 mph 1018.2mb 59f 54f
2:30 5 7 mph 1018.2mb 59f 54f
2:24 6 9 mph 1018.2mb 59f 55f
2:18 8 9 mph 1018.2mb 59f 55f
2:12 6 7 mph 1018.2mb 59f 55f
2:06 6 7 mph 1018.2mb 59f 55f
2:00 6 7 mph 1018.1mb 59f 55f
1:54 6 7 mph 1018.1mb 59f 55f
1:48 6 7 mph 1018.1mb 59f 55f
1:42 6 7 mph 1018mb 59f 55f
1:36 6 7 mph 1018mb 59f 55f
1:30 6 7 mph 1018mb 59f 55f
1:24 6 7 mph 1018mb 59f 55f
1:18 5 7 mph 1018mb 59f 55f
1:12 6 7 mph 1018mb 59f 55f
1:06 6 9 mph 1018mb 59f 55f
1:00 5 7 mph 1018mb 59f 55f
12:54 5 6 mph 1018mb 59f 55f
12:48 5 6 mph 1018.1mb 59f 55f
12:42 3 6 mph 1018.1mb 59f 55f
12:36 3 7 mph 1018.1mb 60f 55f
12:30 5 7 mph 1018.1mb 60f 55f
12:24 6 7 mph 1018.1mb 60f 55f
12:18 5 8 mph 1018.1mb 60f 55f
12:12 7 9 mph 1018.1mb 60f 55f
12:06 6 8 mph 1018.1mb 60f 56f
12:00 1 3 mph 1018.1mb 60f 56f
Sa 05/28 11:54 1 3 mph 1018.1mb 60f 56f
11:48 1 6 mph 1018.1mb 60f 56f
11:42  -  3 mph 1018.1mb 60f 56f
11:36 1 5 mph 1018.1mb 60f 56f
11:30  -  3 mph 1018.1mb 59f 56f
11:24 2 3 mph 1018.1mb 59f 56f
11:18 1 3 mph 1018.1mb 60f 56f
11:12  -  5 mph 1018.1mb 60f 56f
11:06 2 5 mph 1018mb 60f 56f
11:00 3 7 mph 1018mb 60f 56f
10:54 5 7 mph 1018mb 60f 56f
10:48  -  mph 1017.9mb 60f 55f
10:42  -  mph 1017.9mb 59f 55f
10:36  -  mph 1017.9mb 59f 55f
10:30 5 8 mph 1017.9mb 60f 55f
10:24 7 10 mph 1017.8mb 60f 55f
10:18 5 8 mph 1017.8mb 60f 55f
10:12 5 9 mph 1017.8mb 60f 55f
10:06 5 8 mph 1017.8mb 60f 55f
10:00 6 9 mph 1017.8mb 60f 55f
9:54 8 10 mph 1017.8mb 60f 55f
9:48 7 8 mph 1017.8mb 60f 55f
9:42 5 10 mph 1017.8mb 60f 55f
9:36 8 11 mph 1017.8mb 60f 55f
9:30 6 11 mph 1017.8mb 60f 55f
9:24 5 11 mph 1017.8mb 60f 55f
9:18 6 10 mph 1017.7mb 60f 55f
9:12 7 9 mph 1017.7mb 60f 55f
9:06 6 9 mph 1017.8mb 60f 55f
9:00 6 8 mph 1017.7mb 60f 55f
8:54 6 8 mph 1017.8mb 60f 55f
8:48 6 10 mph 1017.8mb 60f 55f
8:42 8 11 mph 1017.7mb 60f 55f
8:36 9 13 mph 1017.7mb 60f 55f
8:30 9 11 mph 1017.6mb 60f 56f
8:24 8 10 mph 1017.6mb 60f 56f
8:18  -  mph 1017.5mb 60f 56f
8:12  -  mph 1017.5mb 60f 56f
8:06  -  mph 1017.5mb 60f 57f
8:00  -  mph 1017.5mb 60f 57f
7:54  -  mph 1017.5mb 60f 57f
7:48 9 15 mph - 60f -
7:42 11 16 mph - 60f -
7:36 11 18 mph - 60f -
7:30 14 17 mph 1017.3mb - -
7:24 11 14 mph 1017.3mb - -
7:18  -  mph 1017.3mb 60f 57f
7:12  -  mph 1017.3mb 60f 57f
7:06  -  mph 1017.3mb 60f 57f
7:00  -  mph 1017.3mb - -
6:54  -  mph 1017.3mb - -
6:48  -  mph - 60f 57f
6:42  -  mph - 60f 57f
6:36  -  mph - 60f 57f
6:30 13 16 mph - - -
6:24 10 18 mph - - -
6:18  -  mph 1017.2mb 60f 57f
6:12  -  mph 1017.3mb 60f 57f
6:06  -  mph 1017.2mb 60f 57f
6:00  -  mph 1017.3mb - 57f
5:54  -  mph 1017.4mb - 57f
5:48  -  mph - 60f 56f
5:42  -  mph - 60f 56f
5:36  -  mph - 60f 56f
5:30 13 16 mph - - -
5:24 11 20 mph - - -
5:18  -  mph 1017.8mb 60f -
5:12  -  mph 1017.9mb 60f -
5:06  -  mph 1017.9mb 60f -
5:00 14 20 mph - - -
4:54 14 21 mph - - -
4:48  -  mph 1017.9mb - -
4:42  -  mph 1018mb - -
4:36  -  mph 1018.1mb - -
4:30 10 16 mph 1018.1mb - -
4:24 10 15 mph 1018.2mb - -
4:18  -  mph - 60f 57f
4:12  -  mph - 60f 57f
4:06  -  mph - 60f 57f
4:00 14 18 mph - - 57f
3:54 10 16 mph - - 57f
3:48  -  mph 1018.2mb - -
3:42  -  mph 1018.2mb - -
3:36  -  mph 1018.3mb - -
3:30  -  mph 1018.4mb 60f 56f
3:24  -  mph 1018.4mb 60f 56f
3:12  -  mph 1018.3mb 60f 57f
3:06  -  mph 1018.3mb 60f 57f
3:00 17 22 mph - - -
2:54 17 25 mph - - -
2:48  -  mph 1018mb 60f 58f
2:42  -  mph 1018mb 60f 58f
2:36  -  mph 1018mb 60f 58f
2:30 16 20 mph 1018mb 60f 58f
2:24 15 21 mph 1018mb 60f 58f
2:18 14 17 mph 1018mb 60f 58f
2:12 13 16 mph 1018mb 60f 58f
2:06 14 17 mph 1018mb 60f 58f
2:00 14 18 mph 1018mb 60f 58f
1:54 9 15 mph 1018mb 60f 58f
1:42 13 16 mph 1018mb 60f 59f
1:36 8 15 mph 1018.1mb 60f 59f
1:30 11 16 mph 1018.1mb 60f 59f
1:24 10 15 mph 1018.2mb 60f 59f
1:18 9 15 mph 1018.3mb 60f 59f
1:12 7 14 mph 1018.3mb 60f 59f
1:06 9 16 mph 1018.4mb 60f 58f
1:00 8 15 mph 1018.4mb 60f 58f
12:54 7 15 mph 1018.4mb 60f 58f
12:48 13 16 mph 1018.5mb 60f 58f
12:42 10 16 mph 1018.6mb 60f 58f
12:36 9 15 mph 1018.6mb 60f 58f
12:30 10 16 mph 1018.7mb 60f 58f
12:18 8 14 mph 1018.7mb 60f 58f
12:12 10 17 mph 1018.7mb 60f 58f
12:06 10 15 mph 1018.7mb 60f 58f
12:00 10 17 mph 1018.8mb 60f 58f
11:54 9 14 mph 1018.8mb 60f 57f
11:48 9 16 mph 1018.8mb 60f 57f
11:42 9 13 mph 1018.8mb 60f 57f
11:36 11 15 mph 1018.9mb 60f 57f
11:30 10 14 mph 1018.9mb 60f 57f
11:24 11 15 mph 1018.9mb 60f 56f
11:18 10 16 mph 1018.9mb 60f 57f
11:12 11 16 mph 1018.8mb 60f 57f
11:06 8 14 mph 1018.8mb 60f 56f
11:00 8 14 mph 1018.8mb 60f 56f
10:54 11 14 mph 1018.9mb 60f 56f
10:48 10 15 mph 1018.9mb 60f 56f
10:42 8 13 mph 1019mb 60f 56f
10:36 8 11 mph 1018.9mb 60f 56f
10:30 8 11 mph 1018.9mb 60f 55f
10:24 8 14 mph 1018.9mb 60f 56f
10:18 10 13 mph 1018.9mb 60f 56f
10:12 9 13 mph 1018.9mb 60f 56f
10:06 8 13 mph 1018.9mb 60f 56f
10:00 7 10 mph 1018.9mb 60f 56f
9:54 5 6 mph 1019mb 60f 55f
9:48 3 6 mph 1019mb 60f 55f
9:42 5 6 mph 1019mb 60f 54f
9:36 6 7 mph 1019.1mb 60f 54f
9:30 6 7 mph 1019mb 60f 54f
9:24 6 8 mph 1019.1mb 60f 54f
9:18 6 9 mph 1019.1mb 60f 54f
9:12 6 7 mph 1019.1mb 59f 53f
9:06 7 9 mph 1019.1mb 60f 53f
9:00 7 9 mph 1019.2mb 60f 53f
8:54 6 7 mph 1019.2mb 60f 53f
8:48 5 7 mph 1019.2mb 59f 53f
8:42 5 6 mph 1019.2mb 59f 53f
8:36 3 7 mph 1019.2mb 59f 53f
8:30 3 8 mph 1019.2mb 59f 53f
8:24 5 6 mph 1019.2mb 59f 52f
8:18 2 5 mph 1019.2mb 59f 52f
8:12 2 6 mph 1019.3mb 60f 52f
8:06 6 7 mph 1019.3mb 60f 52f
8:00 6 7 mph 1019.3mb 60f 52f
7:54 6 7 mph 1019.3mb 60f 52f
7:48 6 7 mph 1019.3mb 60f 52f
7:42 6 9 mph 1019.2mb 60f 52f
7:36 7 9 mph 1019.2mb 60f 51f
7:30 7 9 mph 1019.2mb 60f 51f
7:24 7 9 mph 1019.2mb 60f 51f
7:18 7 9 mph 1019.2mb 60f 51f
7:12 6 9 mph 1019.2mb 60f 51f
7:06 7 10 mph 1019.2mb 60f 51f
7:00 7 9 mph 1019.3mb 60f 51f
6:54 7 10 mph 1019.2mb 60f 51f
6:48 7 9 mph 1019.2mb 60f 51f
6:42 7 10 mph 1019.2mb 60f 51f
6:36 7 10 mph 1019.3mb 60f 51f
6:30 7 11 mph 1019.4mb 60f 51f
6:24 7 11 mph 1019.4mb 60f 51f
6:18 8 11 mph 1019.4mb 60f 51f
6:12 8 13 mph 1019.4mb 60f 51f
6:06 8 11 mph 1019.4mb 60f 51f
6:00  -  mph 1019.4mb 60f 51f
5:54  -  mph 1019.4mb 60f 51f
5:48 9 13 mph 1019.4mb 60f 50f
5:42 8 10 mph 1019.4mb 60f 50f
5:36 9 13 mph 1019.4mb 60f 50f
5:30 8 13 mph 1019.4mb 60f 50f
5:24 8 10 mph 1019.5mb 60f 51f
5:18 8 11 mph 1019.5mb 60f 51f
5:12 8 10 mph 1019.5mb 60f 51f
5:06 8 10 mph 1019.5mb 60f 51f
5:00 8 10 mph 1019.5mb 60f 50f
4:54 7 10 mph 1019.5mb 60f 50f
4:48 7 10 mph 1019.6mb 60f 50f
4:42 7 9 mph 1019.7mb 60f 50f
4:36 7 10 mph 1019.7mb 60f 50f
4:30 6 8 mph 1019.7mb 60f 50f
4:24 8 9 mph 1019.6mb 60f 50f
4:18 7 9 mph 1019.7mb 60f 50f
4:12 6 8 mph 1019.7mb 60f 51f
4:06 6 7 mph 1019.7mb 60f 51f
4:00 6 8 mph 1019.8mb 60f 51f
3:54 6 8 mph 1019.8mb 60f 51f
3:48 6 8 mph 1019.8mb 60f 51f
3:42 7 8 mph 1019.8mb 60f 51f
3:36 7 10 mph 1019.9mb 60f 51f
3:30 7 10 mph 1019.9mb 60f 51f
3:24 8 11 mph 1019.9mb 60f 51f
3:18 8 10 mph 1020mb 60f 51f
3:12 8 10 mph 1020mb 60f 51f
3:06 7 10 mph 1020mb 60f 51f
3:00 8 10 mph 1020.1mb 60f 51f
2:54 8 10 mph 1020.2mb 60f 51f
2:48 8 10 mph 1020.2mb 60f 51f
2:42 8 10 mph 1020.3mb 60f 51f
2:36 7 10 mph 1020.4mb 60f 51f
2:30 9 11 mph 1020.3mb 60f 51f
2:24 9 11 mph 1020.4mb 60f 51f
2:18 8 10 mph 1020.5mb 60f 51f
2:12 7 10 mph 1020.5mb 60f 51f
2:06 7 11 mph 1020.6mb 60f 51f
2:00 7 10 mph 1020.7mb 60f 51f
1:54 6 8 mph 1020.7mb 60f 52f
1:48 6 7 mph 1020.8mb 60f 52f
1:42 6 8 mph 1020.8mb 60f 52f
1:36 6 8 mph 1020.8mb 60f 51f
1:30 6 7 mph 1020.9mb 60f 51f
1:24 5 6 mph 1021mb 60f 51f
1:18 6 7 mph 1021.1mb 60f 51f
1:12 5 7 mph 1021.1mb 60f 51f
1:06 5 6 mph 1021.1mb 60f 51f
1:00 5 6 mph 1021.2mb 60f 51f
12:54 5 7 mph 1021.3mb 60f 51f
12:48 5 7 mph 1021.4mb 60f 51f
12:42 6 7 mph 1021.4mb 60f 51f
12:36 5 7 mph 1021.4mb 60f 51f
12:30 5 7 mph 1021.5mb 60f 51f
12:24 6 7 mph 1021.5mb 60f 51f
12:18 5 6 mph 1021.5mb 60f 51f
12:12 3 5 mph 1021.5mb 60f 52f
12:06 2 3 mph 1021.6mb 60f 53f
12:00 2 3 mph 1021.6mb 60f 53f
Fr 05/27 11:54 2 5 mph 1021.6mb 60f 53f
11:48 3 6 mph 1021.6mb 60f 53f
11:42 3
mph
1021.6mb 60f 53f
11:36 2 6 mph 1021.6mb 60f 53f
11:30 5 6 mph 1021.6mb 60f 53f
11:24 5 6 mph 1021.7mb 60f 53f
11:18  -  mph 1021.7mb 60f 53f
11:12  -  mph 1021.7mb 60f 53f
11:06  -  mph 1021.7mb 60f 54f
11:00  -  mph 1021.8mb 60f 54f
10:54  -  mph 1021.8mb 60f 54f
10:48 6 9 mph 1021.9mb 60f 54f
10:42 6 8 mph 1021.9mb 60f 54f
10:36 6 8 mph 1021.9mb 60f 54f
10:30 7 8 mph 1022mb 60f 54f
10:24 7 9 mph 1022mb 60f 54f
10:18 7 9 mph 1022mb 60f 54f
10:12 7 8 mph 1022mb 60f 54f
10:06 7 9 mph 1022mb 60f 54f
10:00 7 9 mph 1022mb 60f 54f
9:54 8 10 mph 1022mb 60f 54f
9:48 8 10 mph 1021.9mb 60f 54f
9:42 8 10 mph 1021.9mb 60f 54f
9:36 7 9 mph 1021.9mb 60f 54f
9:30 7 9 mph 1021.9mb 60f 54f
9:24 6 9 mph 1021.9mb 60f 54f
9:18 6 9 mph 1021.7mb 60f 54f
9:12 3 9 mph 1021.8mb 60f 55f
9:06 5 11 mph 1021.8mb 60f 55f
9:00 3 10 mph 1021.9mb 60f 55f
8:54 6 10 mph 1021.9mb 59f 55f
8:48  -  mph 1021.9mb 59f 55f
8:42  -  mph 1021.8mb 60f 55f
8:36  -  mph 1021.9mb 60f 55f
8:30 2 6 mph 1021.9mb 60f 55f
8:24 2 5 mph 1021.9mb 60f 55f
8:18  -  mph 1021.9mb 60f -
8:12  -  mph 1021.9mb 60f -
8:06  -  mph 1021.9mb 60f -
8:00  -  3 mph 1021.9mb 60f -
7:54 1 6 mph 1021.9mb 60f -
7:48  -  mph - 60f -
7:42  -  mph - 60f -
7:36  -  mph - 60f -
7:30  -  mph 1022.1mb - -
7:24  -  mph 1022.1mb - -
7:18  -  mph 1022.1mb - 56f
7:12  -  mph 1022.1mb - 56f
7:06  -  mph 1022.2mb - 56f
7:00 2 5 mph 1022.1mb - -
6:54 1 3 mph 1022.1mb - -
6:48  -  mph 1022.2mb 60f -
6:42  -  mph 1022.2mb 60f -
6:36  -  mph 1022.3mb 60f -
6:30 3 8 mph 1022.2mb 60f -
6:24 2 9 mph 1022.2mb 60f -
6:18  -  mph 1022.3mb 60f -
6:12  -  mph 1022.3mb 60f -
6:06  -  mph 1022.3mb 60f -
6:00 5 13 mph 1022.3mb - -
5:54 2 8 mph 1022.4mb - -
5:48  -  mph 1022.4mb 60f -
5:42  -  mph 1022.5mb 60f -
5:36  -  mph 1022.5mb 60f -
5:30 1 11 mph 1022.5mb 60f -
5:24 3 10 mph 1022.5mb 60f -
5:12  -  mph - 60f 57f
5:06  -  mph - 60f 58f
5:00  -  mph 1022.6mb 60f -
4:54  -  mph 1022.6mb 60f -
4:48  -  mph 1022.6mb 60f -
4:42  -  mph 1022.6mb 60f -
4:36  -  mph 1022.6mb 60f -
4:30 2 6 mph 1022.6mb 60f -
4:24 2 8 mph 1022.6mb 60f -
4:18  -  mph 1022.7mb 60f 57f
4:12  -  mph 1022.7mb 60f 57f
4:06  -  mph 1022.8mb 60f 57f
3:54 1 6 mph 1022.7mb - -
3:48  -  mph 1022.8mb - -
3:42  -  mph 1022.8mb - -
3:36  -  mph 1022.7mb - -
3:30 1 6 mph 1022.8mb 60f -
3:24 1 6 mph 1022.9mb 60f -
3:18  -  mph 1022.9mb 61f -
3:12  -  mph 1023mb 61f -
3:06  -  mph 1022.9mb 61f -
3:00  -  mph 1022.9mb - 58f
2:54  -  mph 1022.9mb - 57f
2:48  -  mph 1022.8mb 61f 57f
2:42  -  mph 1022.9mb 61f 57f
2:36  -  mph 1022.8mb 61f 56f
2:30 2 8 mph 1022.9mb 60f 56f
2:24 3 10 mph 1023mb 60f 56f
2:18 2 10 mph 1023mb 60f 56f
2:12 8 13 mph 1023mb 60f 55f
2:06 7 14 mph 1023mb 61f 55f
2:00 8 15 mph 1023mb 61f 55f
1:54 9 13 mph 1023mb 61f 54f
1:48 10 15 mph 1023mb 61f 54f
1:42 11 16 mph 1023.1mb 61f 54f
1:36 13 17 mph 1023.1mb 61f 54f
1:30 8 14 mph 1023mb 61f 55f
1:24 6 14 mph 1023mb 61f 55f
1:18 9 13 mph 1023mb 61f 55f
1:12 7 11 mph 1023.1mb 61f 54f
1:06 3 9 mph 1023.2mb 61f 54f
1:00 7 10 mph 1023.2mb 61f 53f
12:54 3 7 mph 1023.2mb 61f 53f
12:48 2 8 mph 1023.2mb 60f 54f
12:42 2 10 mph 1023.2mb 60f 54f
12:36 3 8 mph 1023.2mb 60f 53f
12:30 5 10 mph 1023.2mb 60f 53f
12:24 9 14 mph 1023.1mb 60f 53f
12:18 11 16 mph 1023mb 60f 52f
12:12 11 20 mph 1022.9mb 60f 52f
12:06 16 20 mph 1022.9mb 60f 53f
12:00 8 18 mph 1022.8mb 60f 54f
11:54 2 8 mph 1022.9mb 60f 56f
11:48 5 8 mph 1022.8mb 60f 56f
11:42 6 8 mph 1022.8mb 60f 55f
11:36 5 8 mph 1022.7mb 60f 55f
11:24 9 11 mph 1022.8mb 60f 53f
11:18 6 10 mph 1022.8mb 60f 53f
11:12 10 13 mph 1022.8mb 60f 53f
11:06 11 13 mph 1022.8mb 60f 52f
11:00 10 14 mph 1022.7mb 60f 53f
10:54 3 8 mph 1022.7mb 59f 56f
10:48 3 8 mph 1022.6mb 60f 56f
10:42 2 7 mph 1022.5mb 60f 57f
10:36 2 7 mph 1022.5mb 60f 56f
10:30 3 9 mph 1022.5mb 60f 56f
10:24 1 7 mph 1022.5mb 60f 56f
10:18 2 6 mph 1022.6mb 59f 56f
10:12 2 7 mph 1022.6mb 59f 56f
10:06 1 5 mph 1022.6mb 59f 56f
10:00 2 6 mph 1022.6mb 60f 55f
9:54 1 6 mph 1022.6mb 60f 55f
9:48 3 6 mph 1022.6mb 59f 54f
9:42 3 8 mph 1022.6mb 59f 54f
9:36 6 7 mph 1022.5mb 59f 54f
9:30 2 9 mph 1022.5mb 59f 54f
9:24 8 9 mph 1022.5mb 60f 53f
9:18 2 8 mph 1022.4mb 60f 54f
9:12 6 8 mph 1022.5mb 60f 53f
9:06 5 9 mph 1022.5mb 60f 53f
9:00 5 9 mph 1022.5mb 60f 53f
8:54 6 9 mph 1022.5mb 60f 53f
8:48 8 13 mph 1022.6mb 60f 53f
8:42 8 10 mph 1022.6mb 60f 53f
8:36 5 10 mph 1022.6mb 60f 53f
8:30 6 10 mph 1022.5mb 60f 53f
8:24 2 5 mph 1022.5mb 60f 53f
8:18 2 6 mph 1022.5mb 60f 53f
8:12 1 5 mph 1022.5mb 60f 53f
8:06 1 6 mph 1022.5mb 60f 53f
8:00 3 7 mph 1022.5mb 60f 53f
7:54 7 9 mph 1022.5mb 60f 53f
7:48 5 8 mph 1022.5mb 60f 53f
7:42 5 7 mph 1022.5mb 60f 53f
7:36 5 9 mph 1022.5mb 60f 53f
7:30 7 10 mph 1022.5mb 60f 53f
7:24 8 10 mph 1022.5mb 60f 53f
7:18 9 16 mph 1022.4mb 60f 53f
7:12 5 9 mph 1022.3mb 60f 53f
7:06 3 7 mph 1022.3mb 60f 53f
7:00 3 6 mph 1022.3mb 60f 53f
6:54  -  3 mph 1022.2mb 60f 53f
6:48 3 6 mph 1022.1mb 60f 53f
6:42 2 8 mph 1022.2mb 60f 53f
6:36 5 8 mph 1022.1mb 60f 53f
6:30 5 13 mph 1022.1mb 60f 53f
6:24 8 11 mph 1022.2mb 60f 53f
6:18 6 11 mph 1022.2mb 60f 53f
6:12 3 7 mph 1022.2mb 60f 53f
6:06 1 5 mph 1022.2mb 60f 53f
6:00 2 6 mph 1022.1mb 60f 53f
5:54 2 14 mph 1022.1mb 60f 52f
5:48 11 16 mph 1022.2mb 60f 52f
5:42 14 20 mph 1022.2mb 60f 52f
5:36 15 18 mph 1022.2mb 60f 52f
5:30 14 18 mph 1022.2mb 60f 51f
5:24 16 21 mph 1022.3mb 60f 52f
5:18 13 15 mph 1022.2mb 60f 53f
5:12 9 11 mph 1022.1mb 60f 52f
5:06 8 10 mph 1022.1mb 60f 52f
5:00 6 8 mph 1022mb 60f 52f
4:54 7 10 mph 1022mb 60f 52f
4:48 7 11 mph 1022mb 60f 52f
4:42 10 14 mph 1022mb 60f 52f
4:36 11 14 mph 1022mb 60f 53f
4:30 10 14 mph 1021.9mb 60f 53f
4:24 9 15 mph 1021.9mb 60f 53f
4:18 9 14 mph 1022mb 60f 53f
4:12 11 17 mph 1022mb 60f 53f
4:06 11 17 mph 1022mb 60f 55f
4:00 7 13 mph 1022.2mb 60f 55f
3:54 5 9 mph 1022.2mb 60f 55f
3:48 7 14 mph 1022.3mb 60f 55f
3:42 11 18 mph 1022.3mb 60f 55f
3:36 2 7 mph 1022.3mb 60f 55f
3:30 3 7 mph 1022.3mb 60f 55f
3:24 10 15 mph 1022.3mb 60f 55f
3:18 9 13 mph 1022.3mb 60f 55f
3:12 6 14 mph 1022.3mb 60f 55f
3:06 3 8 mph 1022.3mb 60f 55f
3:00 3 6 mph 1022.3mb 60f 54f
2:54 2 6 mph 1022.3mb 60f 54f
2:48 6 9 mph 1022.4mb 60f 54f
2:42 3 8 mph 1022.4mb 60f 53f
2:36 7 9 mph 1022.4mb 60f 52f
2:30 7 9 mph 1022.5mb 60f 53f
2:24 8 10 mph 1022.5mb 60f 53f
2:18 7 9 mph 1022.6mb 60f 53f
2:12 3 6 mph 1022.6mb 60f 54f
2:06 1 5 mph 1022.7mb 60f 54f
2:00 2 8 mph 1022.7mb 60f 54f
1:54 2 7 mph 1022.7mb 60f 54f
1:48 6 8 mph 1022.8mb 60f 54f
1:42 5 6 mph 1022.7mb 60f 54f
1:36  -  3 mph 1022.8mb 60f 54f
1:30 1 5 mph 1022.8mb 60f 54f
1:24 1 3 mph 1022.8mb 60f 54f
1:18 3 6 mph 1022.8mb 60f 54f
1:12  -  8 mph 1022.8mb 60f 53f
1:06 3 7 mph 1022.9mb 60f 54f
1:00 2 10 mph 1023mb 60f 54f
12:54 5 10 mph 1023.1mb 60f 54f
12:48 3 7 mph 1023.1mb 60f 54f
12:42 2 9 mph 1023.1mb 60f 54f
12:36 6 9 mph 1023.1mb 60f 54f
12:30 3 10 mph 1023.1mb 60f 54f
12:24 5 9 mph 1023.1mb 60f 53f
12:18 5 8 mph 1023.2mb 60f 53f
12:12 1 9 mph 1023.2mb 60f 53f
12:06 5 9 mph 1023.3mb 60f 53f
12:00 3 7 mph 1023.3mb 60f 53f
Do 05/26 11:54 2 9 mph 1023.3mb 60f 53f
11:48 8 10 mph 1023.4mb 60f 53f
11:42 5 8 mph 1023.3mb 60f 52f
11:36 7 10 mph 1023.3mb 60f 52f
11:30 7 10 mph 1023.3mb 60f 52f
11:24 8 13 mph 1023.3mb 60f 52f
11:18 8 15 mph 1023.4mb 60f 52f
11:12 11 16 mph 1023.5mb 60f 52f
11:06 15 22 mph 1023.4mb 60f 53f
11:00  -  mph 1023.4mb 60f 54f
10:54  -  mph 1023.4mb 60f 55f
10:48  -  mph 1023.4mb 60f 54f
10:42  -  mph 1023.3mb 60f 55f
10:36  -  mph 1023.3mb 60f 55f
10:30 10 14 mph 1023.3mb 60f 55f
10:24 7 10 mph 1023.3mb 60f 55f
10:18 1 9 mph 1023.3mb 60f 55f
10:12 1 8 mph 1023.3mb 60f 55f
10:06 5 7 mph 1023.3mb 60f 55f
10:00 2 8 mph 1023.3mb 60f 55f
9:54 7 10 mph 1023.3mb 60f 55f
9:48 5 10 mph 1023.3mb 60f 55f
9:42 3 10 mph 1023.3mb 60f 55f
9:36 7 9 mph 1023.2mb 60f 54f
9:30 6 9 mph 1023.3mb 60f 55f
9:24 6 10 mph 1023.3mb 60f 55f
9:18 5 13 mph 1023.3mb 60f 55f
9:12 10 14 mph 1023.3mb 60f 54f
9:06 5 10 mph 1023.2mb 60f 54f
9:00 7 13 mph 1023.2mb 60f 54f
8:54 10 13 mph 1023.2mb 60f 54f
8:48  -  mph 1023.2mb 60f 54f
8:42  -  mph 1023.2mb 60f 54f
8:36  -  mph 1023.3mb 60f 54f
8:24 10 13 mph 1023.2mb 60f 54f
8:18  -  mph 1023.3mb 60f -
8:12  -  mph 1023.3mb 60f -
8:06  -  mph 1023.2mb 60f -
8:00  -  mph 1023.2mb 60f -
7:54  -  mph 1023.3mb 60f -
7:42 8 14 mph 1023.2mb - 54f
7:36 8 11 mph 1023.2mb - 55f
7:30 5 8 mph 1023.2mb - -
7:24 1 5 mph 1023.2mb - -
7:18  -  mph 1023.2mb 60f 55f
7:12  -  mph 1023.2mb 60f 55f
7:06  -  mph 1023.2mb 60f 55f
7:00  -  mph 1023.2mb - -
6:54  -  mph 1023.1mb - -
6:48  -  mph 1023.1mb - -
6:42  -  mph 1023.2mb - -